createdAt,value
2018-09-25T00:02:32.505Z,3.5
2018-09-25T00:05:32.237Z,3.5
2018-09-25T00:08:32.276Z,3.5
2018-09-25T00:11:32.188Z,3.5
2018-09-25T00:14:32.423Z,3.5
2018-09-25T00:17:32.267Z,3.5
2018-09-25T00:20:32.519Z,3.5
2018-09-25T00:23:32.449Z,3.5
2018-09-25T00:26:32.314Z,3.5
2018-09-25T00:29:32.212Z,3.5
2018-09-25T00:32:32.504Z,3.5
2018-09-25T00:35:31.996Z,3.5
2018-09-25T00:38:32.218Z,3.5
2018-09-25T00:41:32.055Z,3.5
2018-09-25T00:44:32.072Z,3.5
2018-09-25T00:47:32.361Z,3.5
2018-09-25T00:50:32.219Z,3.5
2018-09-25T00:53:32.358Z,3.5
2018-09-25T00:56:32.175Z,3.5
2018-09-25T00:59:32.428Z,3.5
2018-09-25T01:02:32.131Z,3.5
2018-09-25T01:05:32.425Z,3.5
2018-09-25T01:08:32.225Z,3.5
2018-09-25T01:11:32.454Z,3.5
2018-09-25T01:14:32.307Z,3.5
2018-09-25T01:17:32.399Z,3.5
2018-09-25T01:20:32.308Z,3.5
2018-09-25T01:23:32.210Z,3.5
2018-09-25T01:26:32.127Z,3.5
2018-09-25T01:29:32.271Z,3.5
2018-09-25T01:32:32.253Z,3.5
2018-09-25T01:35:32.326Z,3.5
2018-09-25T01:38:32.236Z,3.5
2018-09-25T01:41:32.253Z,3.5
2018-09-25T01:44:32.227Z,3.5
2018-09-25T01:47:32.433Z,3.5
2018-09-25T01:50:32.307Z,3.5
2018-09-25T01:53:32.108Z,3.5
2018-09-25T01:56:32.107Z,3.5
2018-09-25T01:59:32.208Z,3.5
2018-09-25T02:02:32.051Z,3.5
2018-09-25T02:05:32.058Z,3.5
2018-09-25T02:08:32.225Z,3.5
2018-09-25T02:11:32.126Z,3.5
2018-09-25T02:14:32.332Z,3.5
2018-09-25T02:17:31.985Z,3.5
2018-09-25T02:20:32.120Z,3.5
2018-09-25T02:23:32.191Z,3.5
2018-09-25T02:26:32.169Z,3.5
2018-09-25T02:29:32.232Z,3.5
2018-09-25T02:32:32.137Z,3.5
2018-09-25T02:35:32.376Z,3.5
2018-09-25T02:38:32.257Z,3.5
2018-09-25T02:41:32.306Z,3.5
2018-09-25T02:44:32.170Z,3.5
2018-09-25T02:47:32.376Z,3.5
2018-09-25T02:50:32.184Z,3.5
2018-09-25T02:53:32.423Z,3.5
2018-09-25T02:56:32.208Z,3.5
2018-09-25T02:59:32.174Z,3.5
2018-09-25T03:02:32.296Z,3.5
2018-09-25T03:05:32.471Z,3.5
2018-09-25T03:08:32.258Z,3.5
2018-09-25T03:11:32.536Z,3.5
2018-09-25T03:14:32.187Z,3.5
2018-09-25T03:17:32.172Z,3.5
2018-09-25T03:20:32.256Z,3.5
2018-09-25T03:23:32.148Z,3.5
2018-09-25T03:26:32.230Z,3.5
2018-09-25T03:29:32.208Z,3.5
2018-09-25T03:32:32.271Z,3.5
2018-09-25T03:35:32.043Z,3.5
2018-09-25T03:38:32.292Z,3.5
2018-09-25T03:41:32.238Z,3.5
2018-09-25T03:44:32.109Z,3.5
2018-09-25T03:47:32.115Z,3.5
2018-09-25T03:50:32.070Z,3.5
2018-09-25T03:53:32.307Z,3.5
2018-09-25T03:56:32.327Z,3.5
2018-09-25T03:59:33.633Z,3.5
2018-09-25T04:02:32.087Z,3.5
2018-09-25T04:05:32.488Z,3.5
2018-09-25T04:08:32.442Z,3.5
2018-09-25T04:11:32.197Z,3.5
2018-09-25T04:14:32.286Z,3.5
2018-09-25T04:17:32.278Z,3.5
2018-09-25T04:20:31.939Z,3.5
2018-09-25T04:23:32.226Z,3.5
2018-09-25T04:26:32.165Z,3.5
2018-09-25T04:29:32.020Z,3.5
2018-09-25T04:32:32.108Z,3.5
2018-09-25T04:35:32.115Z,3.5
2018-09-25T04:38:32.494Z,3.5
2018-09-25T04:41:32.453Z,3.5
2018-09-25T04:44:32.168Z,3.5
2018-09-25T04:47:32.483Z,3.5
2018-09-25T04:50:31.997Z,3.5
2018-09-25T04:53:32.137Z,3.5
2018-09-25T04:56:31.989Z,3.5
2018-09-25T04:59:32.145Z,3.5
2018-09-25T05:02:32.298Z,3.5
2018-09-25T05:05:32.038Z,3.5
2018-09-25T05:08:32.147Z,3.5
2018-09-25T05:11:32.364Z,3.5
2018-09-25T05:14:32.243Z,3.5
2018-09-25T05:17:32.209Z,3.5
2018-09-25T05:20:32.104Z,3.5
2018-09-25T05:23:33.838Z,3.5
2018-09-25T05:26:32.325Z,3.5
2018-09-25T05:29:32.222Z,3.5
2018-09-25T05:32:31.883Z,3.5
2018-09-25T05:35:32.333Z,3.5
2018-09-25T05:38:32.155Z,3.5
2018-09-25T05:41:32.401Z,3.5
2018-09-25T05:44:32.235Z,3.5
2018-09-25T05:47:32.202Z,3.5
2018-09-25T05:50:32.012Z,3.5
2018-09-25T05:53:31.989Z,3.5
2018-09-25T05:56:32.420Z,3.5
2018-09-25T05:59:32.210Z,3.5
2018-09-25T06:02:32.212Z,3.5
2018-09-25T06:05:32.049Z,3.5
2018-09-25T06:08:32.357Z,3.5
2018-09-25T06:11:32.057Z,3.5
2018-09-25T06:14:32.059Z,3.5
2018-09-25T06:17:32.077Z,3.5
2018-09-25T06:20:31.938Z,3.5
2018-09-25T06:23:32.122Z,3.5
2018-09-25T06:26:31.978Z,3.5
2018-09-25T06:29:31.973Z,3.5
2018-09-25T06:32:31.993Z,3.5
2018-09-25T06:35:32.223Z,3.5
2018-09-25T06:38:31.878Z,3.5
2018-09-25T06:41:32.365Z,3.5
2018-09-25T06:44:32.032Z,3.5
2018-09-25T06:47:32.124Z,3.5
2018-09-25T06:50:32.124Z,3.5
2018-09-25T06:53:32.047Z,3.5
2018-09-25T06:56:32.502Z,3.5
2018-09-25T06:59:31.897Z,3.5
2018-09-25T07:02:31.919Z,3.5
2018-09-25T07:05:32.293Z,3.5
2018-09-25T07:08:32.482Z,3.5
2018-09-25T07:11:32.265Z,3.5
2018-09-25T07:14:32.102Z,3.5
2018-09-25T07:17:33.521Z,3.5
2018-09-25T07:20:31.988Z,3.5
2018-09-25T07:23:32.394Z,3.5
2018-09-25T07:26:32.043Z,3.5
2018-09-25T07:29:32.188Z,3.5
2018-09-25T07:32:32.387Z,3.5
2018-09-25T07:35:32.509Z,3.5
2018-09-25T07:38:32.368Z,3.5
2018-09-25T07:41:31.909Z,3.5
2018-09-25T07:44:32.164Z,3.5
2018-09-25T07:47:32.550Z,3.5
2018-09-25T07:50:31.882Z,3.5
2018-09-25T07:53:32.045Z,3.5
2018-09-25T07:56:31.878Z,3.5
2018-09-25T07:59:32.198Z,3.5
2018-09-25T08:02:32.116Z,3.6
2018-09-25T08:05:32.028Z,3.6
2018-09-25T08:08:32.067Z,3.6
2018-09-25T08:11:32.097Z,3.6
2018-09-25T08:14:32.101Z,3.6
2018-09-25T08:17:31.968Z,3.6
2018-09-25T08:20:32.012Z,3.6
2018-09-25T08:23:32.057Z,3.6
2018-09-25T08:26:32.523Z,3.6
2018-09-25T08:29:32.896Z,3.6
2018-09-25T08:32:32.248Z,3.6
2018-09-25T08:35:32.279Z,3.6
2018-09-25T08:38:32.250Z,3.6
2018-09-25T08:41:32.124Z,3.6
2018-09-25T08:44:32.531Z,3.6
2018-09-25T08:47:32.073Z,3.6
2018-09-25T08:50:31.844Z,3.6
2018-09-25T08:53:33.728Z,3.6
2018-09-25T08:56:32.105Z,3.6
2018-09-25T08:59:32.163Z,3.6
2018-09-25T09:02:31.861Z,3.8
2018-09-25T09:05:32.146Z,3.8
2018-09-25T09:08:31.959Z,3.8
2018-09-25T09:11:31.951Z,3.8
2018-09-25T09:14:32.217Z,3.8
2018-09-25T09:17:31.894Z,3.8
2018-09-25T09:20:32.135Z,3.8
2018-09-25T09:23:31.890Z,3.8
2018-09-25T09:26:32.094Z,3.8
2018-09-25T09:29:32.013Z,3.8
2018-09-25T09:32:33.438Z,3.8
2018-09-25T09:35:31.976Z,3.8
2018-09-25T09:38:32.297Z,3.8
2018-09-25T09:41:35.748Z,3.8
2018-09-25T09:44:31.986Z,3.8
2018-09-25T09:47:31.887Z,3.8
2018-09-25T09:50:34.169Z,3.8
2018-09-25T09:53:32.234Z,3.8
2018-09-25T09:56:33.567Z,3.8
2018-09-25T09:59:32.128Z,3.8
2018-09-25T10:02:31.996Z,3.7
2018-09-25T10:05:32.152Z,3.7
2018-09-25T10:08:31.955Z,3.7
2018-09-25T10:11:31.999Z,3.7
2018-09-25T10:14:32.318Z,3.7
2018-09-25T10:17:32.292Z,3.7
2018-09-25T10:20:32.090Z,3.7
2018-09-25T10:23:32.088Z,3.7
2018-09-25T10:26:32.035Z,3.7
2018-09-25T10:29:32.306Z,3.7
2018-09-25T10:32:32.037Z,3.7
2018-09-25T10:35:31.981Z,3.7
2018-09-25T10:38:32.481Z,3.7
2018-09-25T10:41:32.350Z,3.7
2018-09-25T10:44:32.266Z,3.7
2018-09-25T10:47:32.110Z,3.7
2018-09-25T10:50:32.434Z,3.7
2018-09-25T10:53:31.822Z,3.7
2018-09-25T10:56:31.877Z,3.7
2018-09-25T10:59:32.159Z,3.7
2018-09-25T11:02:31.901Z,3.6
2018-09-25T11:05:31.826Z,3.6
2018-09-25T11:08:32.181Z,3.6
2018-09-25T11:11:31.943Z,3.6
2018-09-25T11:14:31.880Z,3.6
2018-09-25T11:17:32.348Z,3.6
2018-09-25T11:20:32.365Z,3.6
2018-09-25T11:23:32.099Z,3.6
2018-09-25T11:26:32.131Z,3.6
2018-09-25T11:29:32.103Z,3.6
2018-09-25T11:32:32.353Z,3.6
2018-09-25T11:35:31.845Z,3.6
2018-09-25T11:38:32.257Z,3.6
2018-09-25T11:41:32.180Z,3.6
2018-09-25T11:44:32.011Z,3.6
2018-09-25T11:47:32.232Z,3.6
2018-09-25T11:50:32.238Z,3.6
2018-09-25T11:53:31.943Z,3.6
2018-09-25T11:56:32.236Z,3.6
2018-09-25T11:59:31.941Z,3.6
2018-09-25T12:02:32.242Z,3.6
2018-09-25T12:05:31.877Z,3.6
2018-09-25T12:08:32.395Z,3.6
2018-09-25T12:11:31.955Z,3.6
2018-09-25T12:14:31.901Z,3.6
2018-09-25T12:17:33.232Z,3.6
2018-09-25T12:20:32.377Z,3.6
2018-09-25T12:23:32.348Z,3.6
2018-09-25T12:26:31.866Z,3.6
2018-09-25T12:29:31.812Z,3.6
2018-09-25T12:32:32.858Z,3.6
2018-09-25T12:35:31.946Z,3.6
2018-09-25T12:38:31.906Z,3.6
2018-09-25T12:41:31.796Z,3.6
2018-09-25T12:44:31.998Z,3.6
2018-09-25T12:47:32.378Z,3.6
2018-09-25T12:50:32.051Z,3.6
2018-09-25T12:53:31.973Z,3.6
2018-09-25T12:56:32.496Z,3.6
2018-09-25T12:59:32.068Z,3.6
2018-09-25T13:02:32.001Z,3.6
2018-09-25T13:05:32.092Z,3.6
2018-09-25T13:08:32.122Z,3.6
2018-09-25T13:11:31.859Z,3.6
2018-09-25T13:14:31.919Z,3.6
2018-09-25T13:17:31.778Z,3.6
2018-09-25T13:20:32.289Z,3.6
2018-09-25T13:23:32.077Z,3.6
2018-09-25T13:26:31.789Z,3.6
2018-09-25T13:29:32.316Z,3.6
2018-09-25T13:32:32.039Z,3.6
2018-09-25T13:35:32.024Z,3.6
2018-09-25T13:38:31.924Z,3.6
2018-09-25T13:41:31.860Z,3.6
2018-09-25T13:44:32.208Z,3.6
2018-09-25T13:47:31.951Z,3.6
2018-09-25T13:50:31.900Z,3.6
2018-09-25T13:53:32.003Z,3.6
2018-09-25T13:56:31.848Z,3.6
2018-09-25T13:59:31.813Z,3.6
2018-09-25T14:02:32.038Z,3.6
2018-09-25T14:05:31.884Z,3.6
2018-09-25T14:08:31.808Z,3.6
2018-09-25T14:11:31.995Z,3.6
2018-09-25T14:14:31.848Z,3.6
2018-09-25T14:17:31.754Z,3.6
2018-09-25T14:20:32.037Z,3.6
2018-09-25T14:23:32.042Z,3.6
2018-09-25T14:26:32.126Z,3.6
2018-09-25T14:29:32.103Z,3.6
2018-09-25T14:32:31.734Z,3.6
2018-09-25T14:35:31.883Z,3.6
2018-09-25T14:38:32.147Z,3.6
2018-09-25T14:41:32.326Z,3.6
2018-09-25T14:44:32.045Z,3.6
2018-09-25T14:47:32.367Z,3.6
2018-09-25T14:50:31.945Z,3.6
2018-09-25T14:53:32.116Z,3.6
2018-09-25T14:56:32.375Z,3.6
2018-09-25T14:59:31.990Z,3.6
2018-09-25T15:02:31.925Z,3.3
2018-09-25T15:05:31.887Z,3.3
2018-09-25T15:08:31.872Z,3.3
2018-09-25T15:11:31.975Z,3.3
2018-09-25T15:14:32.067Z,3.3
2018-09-25T15:17:31.859Z,3.3
2018-09-25T15:20:31.875Z,3.3
2018-09-25T15:23:31.685Z,3.3
2018-09-25T15:26:32.799Z,3.3
2018-09-25T15:29:32.059Z,3.3
2018-09-25T15:32:32.754Z,3.3
2018-09-25T15:35:35.214Z,3.3
2018-09-25T15:38:32.033Z,3.3
2018-09-25T15:41:33.589Z,3.3
2018-09-25T15:44:31.682Z,3.3
2018-09-25T15:47:31.760Z,3.3
2018-09-25T15:50:31.914Z,3.3
2018-09-25T15:53:31.832Z,3.3
2018-09-25T15:56:31.926Z,3.3
2018-09-25T15:59:32.035Z,3.3
2018-09-25T16:02:32.029Z,3.2
2018-09-25T16:05:31.983Z,3.2
2018-09-25T16:08:31.746Z,3.2
2018-09-25T16:11:31.967Z,3.2
2018-09-25T16:14:31.913Z,3.2
2018-09-25T16:17:31.752Z,3.2
2018-09-25T16:20:31.947Z,3.2
2018-09-25T16:23:32.112Z,3.2
2018-09-25T16:26:31.799Z,3.2
2018-09-25T16:29:31.898Z,3.2
2018-09-25T16:32:33.371Z,3.2
2018-09-25T16:35:32.811Z,3.2
2018-09-25T16:38:31.836Z,3.2
2018-09-25T16:41:31.932Z,3.2
2018-09-25T16:44:31.653Z,3.2
2018-09-25T16:47:34.003Z,3.2
2018-09-25T16:50:31.833Z,3.2
2018-09-25T16:53:31.735Z,3.2
2018-09-25T16:56:31.868Z,3.2
2018-09-25T16:59:32.089Z,3.2
2018-09-25T17:02:31.861Z,3.1
2018-09-25T17:05:31.766Z,3.1
2018-09-25T17:08:31.809Z,3.1
2018-09-25T17:11:31.948Z,3.1
2018-09-25T17:14:31.829Z,3.1
2018-09-25T17:17:32.118Z,3.1
2018-09-25T17:20:32.184Z,3.1
2018-09-25T17:23:31.855Z,3.1
2018-09-25T17:26:31.890Z,3.1
2018-09-25T17:29:31.727Z,3.1
2018-09-25T17:32:31.671Z,3.1
2018-09-25T17:35:31.974Z,3.1
2018-09-25T17:38:32.080Z,3.1
2018-09-25T17:41:31.835Z,3.1
2018-09-25T17:44:31.950Z,3.1
2018-09-25T17:47:31.961Z,3.1
2018-09-25T17:50:31.970Z,3.1
2018-09-25T17:53:31.914Z,3.1
2018-09-25T17:56:31.844Z,3.1
2018-09-25T17:59:32.187Z,3.1
2018-09-25T18:02:31.759Z,2.9
2018-09-25T18:05:31.623Z,2.9
2018-09-25T18:08:31.855Z,2.9
2018-09-25T18:11:31.800Z,2.9
2018-09-25T18:14:32.096Z,2.9
2018-09-25T18:17:31.911Z,2.9
2018-09-25T18:20:31.839Z,2.9
2018-09-25T18:23:32.299Z,2.9
2018-09-25T18:26:32.164Z,2.9
2018-09-25T18:29:31.798Z,2.9
2018-09-25T18:32:32.258Z,2.9
2018-09-25T18:35:31.900Z,2.9
2018-09-25T18:38:32.015Z,2.9
2018-09-25T18:41:32.025Z,2.9
2018-09-25T18:44:31.675Z,2.9
2018-09-25T18:47:31.944Z,2.9
2018-09-25T18:50:33.061Z,2.9
2018-09-25T18:53:31.915Z,2.9
2018-09-25T18:56:31.798Z,2.9
2018-09-25T18:59:32.764Z,2.9
2018-09-25T19:02:31.967Z,2.8
2018-09-25T19:05:32.012Z,2.8
2018-09-25T19:08:31.951Z,2.8
2018-09-25T19:11:31.656Z,2.8
2018-09-25T19:14:31.755Z,2.8
2018-09-25T19:17:31.692Z,2.8
2018-09-25T19:20:31.915Z,2.8
2018-09-25T19:23:31.875Z,2.8
2018-09-25T19:26:31.645Z,2.8
2018-09-25T19:29:31.845Z,2.8
2018-09-25T19:32:31.844Z,2.8
2018-09-25T19:35:31.887Z,2.8
2018-09-25T19:38:32.130Z,2.8
2018-09-25T19:41:31.856Z,2.8
2018-09-25T19:44:32.065Z,2.8
2018-09-25T19:47:32.234Z,2.8
2018-09-25T19:50:31.908Z,2.8
2018-09-25T19:53:31.670Z,2.8
2018-09-25T19:56:31.662Z,2.8
2018-09-25T19:59:31.734Z,2.8
2018-09-25T20:02:31.694Z,2.9
2018-09-25T20:05:32.129Z,2.9
2018-09-25T20:08:31.878Z,2.9
2018-09-25T20:11:31.842Z,2.9
2018-09-25T20:14:31.905Z,2.9
2018-09-25T20:17:32.066Z,2.9
2018-09-25T20:20:31.578Z,2.9
2018-09-25T20:23:31.908Z,2.9
2018-09-25T20:26:32.001Z,2.9
2018-09-25T20:29:31.923Z,2.9
2018-09-25T20:32:31.787Z,2.9
2018-09-25T20:35:31.866Z,2.9
2018-09-25T20:38:31.774Z,2.9
2018-09-25T20:41:31.913Z,2.9
2018-09-25T20:44:31.827Z,2.9
2018-09-25T20:47:31.885Z,2.9
2018-09-25T20:50:31.763Z,2.9
2018-09-25T20:53:31.623Z,2.9
2018-09-25T20:56:32.878Z,2.9
2018-09-25T20:59:32.111Z,2.9
2018-09-25T21:02:31.803Z,2.8
2018-09-25T21:05:31.847Z,2.8
2018-09-25T21:08:31.570Z,2.8
2018-09-25T21:11:31.945Z,2.8
2018-09-25T21:14:32.150Z,2.8
2018-09-25T21:17:31.732Z,2.8
2018-09-25T21:20:31.924Z,2.8
2018-09-25T21:23:31.966Z,2.8
2018-09-25T21:26:31.789Z,2.8
2018-09-25T21:29:31.882Z,2.8
2018-09-25T21:32:31.883Z,2.8
2018-09-25T21:35:31.720Z,2.8
2018-09-25T21:38:31.685Z,2.8
2018-09-25T21:41:31.732Z,2.8
2018-09-25T21:44:31.975Z,2.8
2018-09-25T21:47:31.773Z,2.8
2018-09-25T21:50:31.723Z,2.8
2018-09-25T21:53:32.097Z,2.8
2018-09-25T21:56:32.092Z,2.8
2018-09-25T21:59:31.614Z,2.8
2018-09-25T22:02:31.633Z,2.8
2018-09-25T22:05:31.887Z,2.8
2018-09-25T22:08:31.665Z,2.8
2018-09-25T22:11:31.967Z,2.8
2018-09-25T22:14:31.687Z,2.8
2018-09-25T22:17:31.788Z,2.8
2018-09-25T22:20:32.065Z,2.8
2018-09-25T22:23:32.280Z,2.8
2018-09-25T22:26:31.694Z,2.8
2018-09-25T22:29:31.865Z,2.8
2018-09-25T22:32:32.148Z,2.8
2018-09-25T22:35:31.836Z,2.8
2018-09-25T22:38:31.889Z,2.8
2018-09-25T22:41:31.634Z,2.8
2018-09-25T22:44:31.951Z,2.8
2018-09-25T22:47:31.645Z,2.8
2018-09-25T22:50:31.728Z,2.8
2018-09-25T22:53:31.547Z,2.8
2018-09-25T22:56:31.958Z,2.8
2018-09-25T22:59:31.573Z,2.8
2018-09-25T23:02:32.135Z,2.8
2018-09-25T23:05:32.030Z,2.8
2018-09-25T23:08:31.576Z,2.8
2018-09-25T23:11:31.545Z,2.8
2018-09-25T23:14:31.772Z,2.8
2018-09-25T23:17:32.049Z,2.8
2018-09-25T23:20:31.726Z,2.8
2018-09-25T23:23:31.631Z,2.8
2018-09-25T23:26:31.672Z,2.8
2018-09-25T23:29:31.686Z,2.8
2018-09-25T23:32:31.604Z,2.8
2018-09-25T23:35:31.646Z,2.8
2018-09-25T23:38:31.584Z,2.8
2018-09-25T23:41:31.610Z,2.8
2018-09-25T23:44:31.871Z,2.8
2018-09-25T23:47:31.820Z,2.8
2018-09-25T23:50:31.954Z,2.8
2018-09-25T23:53:31.724Z,2.8
2018-09-25T23:56:31.426Z,2.8
2018-09-25T23:59:31.922Z,2.8
